Atlantis Almeria — 9HA2382 — position and weather

sailwx.info

Track history (hours):
 
Tides and Currents Weather Stations Pressure Air Temp Water Temp Dewpoint Dewpoint Depression Visibility Wind Speed Wind Dir Waves Ship Positions

Atlantis Almeria

Last reported at 2017-Sep-13 03:53 UTC. Time now 2017-Sep-22 17:20 UTC.
Position N 27°32' W 015°13'.
Warning: this ship's position is 9 days out of date.

Length 109 m; draft 6.8 m.

Type: Tanker. MMSI: 248483000.

Date/timePositionNaut miles runAvg speedWind from/ knotsBaromVisibWave heightAir tempDewpointWater temp
2017-Sep-13 03:53N 27°32' W 015°13'512.5
2017-Sep-13 03:29N 27°37' W 015°12'612.4
2017-Sep-13 03:00N 27°43' W 015°10'612.0
2017-Sep-13 02:30N 27°49' W 015°10'612.0
2017-Sep-13 02:00N 27°55' W 015°10'611.6
2017-Sep-13 01:30N 28°00' W 015°12'511.0
2017-Sep-13 01:00N 28°04' W 015°17'510.7
2017-Sep-13 00:31N 28°06' W 015°23'3 6.4
2017-Sep-13 00:00N 28°08' W 015°25'0 0.2
2017-Sep-12 23:28N 28°09' W 015°25'0 0.0
2017-Sep-12 22:58N 28°09' W 015°25'0 0.0
2017-Sep-12 22:28N 28°09' W 015°25'0 0.0
2017-Sep-12 21:58N 28°09' W 015°25'0 0.0
2017-Sep-12 21:28N 28°09' W 015°25'0 0.0
2017-Sep-12 20:46N 28°09' W 015°25'0 0.0
2017-Sep-12 20:28N 28°09' W 015°25'0 0.0
2017-Sep-12 19:58N 28°09' W 015°25'0 0.0
2017-Sep-12 19:28N 28°09' W 015°25'0 0.0
2017-Sep-12 18:49N 28°09' W 015°25'0 0.4
2017-Sep-12 18:28N 28°08' W 015°25'1 2.0
2017-Sep-12 18:00N 28°08' W 015°24'2 4.1
2017-Sep-12 17:30N 28°07' W 015°22'0 0.6
2017-Sep-12 17:00N 28°07' W 015°22'2 4.6
2017-Sep-12 16:30N 28°09' W 015°20'611.3
2017-Sep-12 16:00N 28°13' W 015°16'611.8
2017-Sep-12 15:30N 28°17' W 015°12'612.0
2017-Sep-12 15:00N 28°22' W 015°07'612.1
2017-Sep-12 14:30N 28°26' W 015°02'612.4
2017-Sep-12 14:00N 28°30' W 014°57'612.2
2017-Sep-12 13:30N 28°35' W 014°52'611.8
2017-Sep-12 13:00N 28°39' W 014°47'4312.0
2017-Sep-12 09:24N 29°09' W 014°12'512.0
2017-Sep-12 09:00N 29°13' W 014°08'59311.8
2017-Sep-10 06:38N 35°57' W 005°34'1 8.4
2017-Sep-10 06:30N 35°58' W 005°33'4 8.7
2017-Sep-10 06:00N 35°59' W 005°28'4 8.7
2017-Sep-10 05:30N 36°01' W 005°23'4 8.6
2017-Sep-10 05:00N 36°02' W 005°18'5 9.9
2017-Sep-10 04:30N 36°03' W 005°12'156 8.3
2017-Sep-09 09:44N 36°31' W 002°02'29 9.9
2017-Sep-09 06:50N 36°45' W 001°30'510.9
2017-Sep-09 06:25N 36°47' W 001°25'611.0
2017-Sep-09 05:53N 36°50' W 001°19'411.1
2017-Sep-09 05:30N 36°52' W 001°15'6611.4
2017-Sep-08 23:44N 37°26' W 000°04'611.5
2017-Sep-08 23:14N 37°29' E 000°02'311.7
2017-Sep-08 22:59N 37°31' E 000°05'611.7
2017-Sep-08 22:30N 37°33' E 000°12'611.8
2017-Sep-08 22:00N 37°37' E 000°18'1211.5
2017-Sep-08 20:59N 37°43' E 000°30'911.5
2017-Sep-08 20:11N 37°48' E 000°40'211.5
2017-Sep-08 20:00N 37°49' E 000°42'711.3
2017-Sep-08 19:25N 37°52' E 000°50'611.3
2017-Sep-08 18:54N 37°55' E 000°56'411.1
2017-Sep-08 18:30N 37°57' E 001°01'7911.6
2017-Sep-08 11:44N 38°37' E 002°27'911.4
2017-Sep-08 10:56N 38°42' E 002°37'1611.5
2017-Sep-08 09:35N 38°50' E 002°54'111.4
2017-Sep-08 09:28N 38°50' E 002°56'611.4
2017-Sep-08 08:56N 38°53' E 003°02'511.5
2017-Sep-08 08:30N 38°56' E 003°08'611.8
2017-Sep-08 07:58N 38°59' E 003°15'611.7
2017-Sep-08 07:29N 39°02' E 003°21'36311.0
2017-Sep-06 22:35N 43°14' E 009°07'311.2
2017-Sep-06 22:20N 43°15' E 009°11'411.4
2017-Sep-06 22:00N 43°16' E 009°16'611.6
2017-Sep-06 21:30N 43°17' E 009°24'811.3
2017-Sep-06 20:49N 43°16' E 009°35'1312.0
2017-Sep-06 19:45N 43°18' E 009°52'511.9
2017-Sep-06 19:22N 43°18' E 009°58'411.6
2017-Sep-06 19:01N 43°21' E 010°03'612.4
2017-Sep-06 18:30N 43°26' E 010°07'611.6
2017-Sep-06 18:00N 43°31' E 010°12'5 9.3
2017-Sep-06 17:30N 43°33' E 010°17'2 3.7
2017-Sep-06 16:59N 43°34' E 010°19'0 0.0
2017-Sep-06 16:29N 43°34' E 010°19'0 0.0
2017-Sep-06 15:59N 43°34' E 010°19'0 0.0
2017-Sep-06 15:29N 43°34' E 010°19'0 0.0
2017-Sep-06 14:56N 43°34' E 010°19'0 0.0
2017-Sep-06 14:29N 43°34' E 010°19'0 0.0
2017-Sep-06 13:59N 43°34' E 010°19'0 0.0
2017-Sep-06 13:23N 43°34' E 010°19'0 0.0
2017-Sep-06 12:59N 43°34' E 010°19'0 0.0
2017-Sep-06 12:29N 43°34' E 010°19'0 0.0
2017-Sep-06 11:56N 43°34' E 010°19'0 0.0
2017-Sep-06 11:29N 43°34' E 010°19'0 0.0
2017-Sep-06 10:59N 43°34' E 010°19'0 0.0
2017-Sep-06 10:29N 43°34' E 010°19'0 0.0
2017-Sep-06 09:59N 43°34' E 010°19'0 0.0
2017-Sep-06 09:23N 43°34' E 010°19'0 0.0
2017-Sep-06 08:59N 43°34' E 010°19'0 0.0
2017-Sep-06 08:29N 43°34' E 010°19'0 0.0
2017-Sep-06 07:59N 43°34' E 010°19'0 0.0
2017-Sep-06 07:26N 43°34' E 010°19'0 0.0
2017-Sep-06 06:59N 43°34' E 010°19'0 0.0
2017-Sep-06 06:29N 43°34' E 010°19'0 0.0
2017-Sep-06 05:59N 43°34' E 010°19'0 0.0
2017-Sep-06 05:23N 43°34' E 010°19'0 0.0
2017-Sep-06 04:59N 43°34' E 010°19'0 0.0
2017-Sep-06 04:26N 43°34' E 010°19'0 0.0
2017-Sep-06 03:59N 43°34' E 010°19'0 0.0
2017-Sep-06 03:26N 43°34' E 010°19'0 0.0
2017-Sep-06 02:56N 43°34' E 010°19'0 0.0
2017-Sep-06 02:26N 43°34' E 010°19'0 0.0
2017-Sep-06 01:59N 43°34' E 010°19'0 0.0
2017-Sep-06 01:29N 43°34' E 010°19'0 0.0
2017-Sep-06 00:56N 43°34' E 010°19'0 0.0
2017-Sep-06 00:29N 43°34' E 010°19'0 0.0
2017-Sep-05 23:59N 43°34' E 010°19'0 0.0
2017-Sep-05 23:29N 43°34' E 010°19'0 0.0
2017-Sep-05 22:50N 43°34' E 010°19'0 0.0
2017-Sep-05 22:17N 43°34' E 010°19'0 0.0
2017-Sep-05 21:59N 43°34' E 010°19'0 0.0
2017-Sep-05 21:23N 43°34' E 010°19'0 0.0
2017-Sep-05 20:56N 43°34' E 010°19'0 0.0
2017-Sep-05 20:29N 43°34' E 010°19'0 0.0
2017-Sep-05 19:59N 43°34' E 010°19'0 0.0
2017-Sep-05 19:29N 43°34' E 010°19'0 0.0
2017-Sep-05 18:59N 43°34' E 010°19'0 0.0
2017-Sep-05 18:29N 43°34' E 010°19'0 0.0
2017-Sep-05 17:59N 43°34' E 010°19'0 0.0
2017-Sep-05 17:29N 43°34' E 010°19'0 0.0
2017-Sep-05 16:59N 43°34' E 010°19'0 0.0
2017-Sep-05 16:29N 43°34' E 010°19'0 0.0
2017-Sep-05 15:56N 43°34' E 010°19'0 0.0
2017-Sep-05 15:29N 43°34' E 010°19'0 0.0
2017-Sep-05 14:59N 43°34' E 010°19'0 0.0
2017-Sep-05 14:26N 43°34' E 010°19'0 0.0
2017-Sep-05 13:59N 43°34' E 010°19'0 0.0
2017-Sep-05 13:26N 43°34' E 010°19'0 0.0
2017-Sep-05 12:53N 43°34' E 010°19'0 0.0
2017-Sep-05 12:26N 43°34' E 010°19'0 0.0
2017-Sep-05 11:59N 43°34' E 010°19'0 0.0
2017-Sep-05 11:29N 43°34' E 010°19'0 0.0
2017-Sep-05 10:59N 43°34' E 010°19'0 0.0
2017-Sep-05 10:26N 43°34' E 010°19'0 0.0
2017-Sep-05 09:59N 43°34' E 010°19'0 0.0
2017-Sep-05 09:29N 43°34' E 010°19'0 0.0
2017-Sep-05 08:59N 43°34' E 010°19'0 0.0
2017-Sep-05 08:26N 43°34' E 010°19'0 0.0
2017-Sep-05 07:53N 43°34' E 010°19'0 0.0
2017-Sep-05 07:26N 43°34' E 010°19'0 0.0
2017-Sep-05 06:56N 43°34' E 010°19'0 0.0
2017-Sep-05 06:29N 43°34' E 010°19'0 0.0
2017-Sep-05 05:56N 43°34' E 010°19'0 0.0
2017-Sep-05 05:26N 43°34' E 010°19'0 0.0
2017-Sep-05 04:56N 43°34' E 010°19'0 0.0
2017-Sep-05 04:29N 43°34' E 010°19'0 0.0
2017-Sep-05 03:59N 43°34' E 010°19'0 0.0
2017-Sep-05 03:20N 43°34' E 010°19'0 0.0
2017-Sep-05 02:53N 43°34' E 010°19'0 0.0
2017-Sep-05 02:29N 43°34' E 010°19'0 0.0
2017-Sep-05 01:59N 43°34' E 010°19'0 0.0
2017-Sep-05 01:23N 43°34' E 010°19'0 0.0
2017-Sep-05 00:59N 43°34' E 010°19'0 0.0
2017-Sep-05 00:29N 43°34' E 010°19'0 0.0
2017-Sep-04 23:56N 43°34' E 010°19'0 0.0
2017-Sep-04 23:23N 43°34' E 010°19'0 0.0
2017-Sep-04 22:56N 43°34' E 010°19'0 0.0
2017-Sep-04 22:29N 43°34' E 010°19'0 0.0
2017-Sep-04 21:56N 43°34' E 010°19'0 1.0
2017-Sep-04 21:30N 43°34' E 010°19'3 6.4
2017-Sep-04 21:00N 43°32' E 010°16'2 4.4
2017-Sep-04 20:30N 43°30' E 010°14'1 2.4
2017-Sep-04 19:58N 43°29' E 010°16'0 0.0
2017-Sep-04 19:28N 43°29' E 010°16'0 0.0
2017-Sep-04 18:58N 43°29' E 010°16'0 0.0
2017-Sep-04 18:28N 43°29' E 010°16'0 0.0
2017-Sep-04 17:49N 43°29' E 010°16'0 0.0
2017-Sep-04 17:28N 43°29' E 010°16'0 0.0
2017-Sep-04 16:55N 43°29' E 010°16'0 0.0
2017-Sep-04 16:28N 43°29' E 010°16'0 0.0
2017-Sep-04 15:58N 43°29' E 010°16'0 0.0
2017-Sep-04 15:28N 43°29' E 010°16'0 0.0
2017-Sep-04 14:52N 43°29' E 010°16'0 0.0
2017-Sep-04 14:25N 43°29' E 010°16'0 0.0
2017-Sep-04 13:37N 43°29' E 010°16'0 0.0
2017-Sep-04 13:28N 43°29' E 010°16'0 0.0
2017-Sep-04 12:52N 43°29' E 010°16'0 0.0
2017-Sep-04 12:25N 43°29' E 010°16'0 0.0
2017-Sep-04 11:52N 43°29' E 010°16'0 0.0
2017-Sep-04 11:22N 43°29' E 010°16'0 0.0
2017-Sep-04 10:58N 43°29' E 010°16'0 0.0
2017-Sep-04 10:25N 43°29' E 010°16'0 0.0
2017-Sep-04 09:55N 43°29' E 010°16'0 0.0
2017-Sep-04 09:10N 43°29' E 010°16'0 0.0
2017-Sep-04 08:55N 43°29' E 010°16'0 0.0
2017-Sep-04 08:25N 43°29' E 010°16'0 0.0
2017-Sep-04 07:58N 43°29' E 010°16'0 0.1
2017-Sep-04 07:25N 43°29' E 010°16'0 0.0
2017-Sep-04 06:58N 43°29' E 010°16'0 0.0
2017-Sep-04 06:25N 43°29' E 010°16'0 0.0
2017-Sep-04 05:58N 43°29' E 010°16'0 0.0
2017-Sep-04 05:28N 43°29' E 010°16'0 0.0
2017-Sep-04 04:58N 43°29' E 010°16'0 0.0
2017-Sep-04 04:28N 43°29' E 010°16'0 0.0
2017-Sep-04 03:58N 43°29' E 010°16'0 0.2
2017-Sep-04 03:30N 43°29' E 010°16'4 7.7
2017-Sep-04 03:00N 43°27' E 010°11'612.2
2017-Sep-04 02:30N 43°23' E 010°05'611.9
2017-Sep-04 02:00N 43°19' E 009°60'611.6
2017-Sep-04 01:30N 43°17' E 009°52'612.1
2017-Sep-04 01:00N 43°17' E 009°44'612.0
2017-Sep-04 00:30N 43°16' E 009°36'611.8
2017-Sep-04 00:00N 43°16' E 009°28'612.2
2017-Sep-03 23:30N 43°16' E 009°19'  
Track history (hours):
 
Tides and Currents Weather Stations Pressure Air Temp Water Temp Dewpoint Dewpoint Depression Visibility Wind Speed Wind Dir Waves Ship Positions

Atlantis Almeria

Last reported at 2017-Sep-13 03:53 UTC. Time now 2017-Sep-22 17:21 UTC.
Position N 27°32' W 015°13'.
Warning: this ship's position is 9 days out of date.

Length 109 m; draft 6.8 m.

Type: Tanker. MMSI: 248483000.

Date/timePositionNaut miles runAvg speedWind from/ knotsBaromVisibWave heightAir tempDewpointWater temp
2017-Sep-13 03:53N 27°32' W 015°13'512.5
2017-Sep-13 03:29N 27°37' W 015°12'612.4
2017-Sep-13 03:00N 27°43' W 015°10'612.0
2017-Sep-13 02:30N 27°49' W 015°10'612.0
2017-Sep-13 02:00N 27°55' W 015°10'611.6
2017-Sep-13 01:30N 28°00' W 015°12'511.0
2017-Sep-13 01:00N 28°04' W 015°17'510.7
2017-Sep-13 00:31N 28°06' W 015°23'3 6.4
2017-Sep-13 00:00N 28°08' W 015°25'0 0.2
2017-Sep-12 23:28N 28°09' W 015°25'0 0.0
2017-Sep-12 22:58N 28°09' W 015°25'0 0.0
2017-Sep-12 22:28N 28°09' W 015°25'0 0.0
2017-Sep-12 21:58N 28°09' W 015°25'0 0.0
2017-Sep-12 21:28N 28°09' W 015°25'0 0.0
2017-Sep-12 20:46N 28°09' W 015°25'0 0.0
2017-Sep-12 20:28N 28°09' W 015°25'0 0.0
2017-Sep-12 19:58N 28°09' W 015°25'0 0.0
2017-Sep-12 19:28N 28°09' W 015°25'0 0.0
2017-Sep-12 18:49N 28°09' W 015°25'0 0.4
2017-Sep-12 18:28N 28°08' W 015°25'1 2.0
2017-Sep-12 18:00N 28°08' W 015°24'2 4.1
2017-Sep-12 17:30N 28°07' W 015°22'0 0.6
2017-Sep-12 17:00N 28°07' W 015°22'2 4.6
2017-Sep-12 16:30N 28°09' W 015°20'611.3
2017-Sep-12 16:00N 28°13' W 015°16'611.8
2017-Sep-12 15:30N 28°17' W 015°12'612.0
2017-Sep-12 15:00N 28°22' W 015°07'612.1
2017-Sep-12 14:30N 28°26' W 015°02'612.4
2017-Sep-12 14:00N 28°30' W 014°57'612.2
2017-Sep-12 13:30N 28°35' W 014°52'611.8
2017-Sep-12 13:00N 28°39' W 014°47'4312.0
2017-Sep-12 09:24N 29°09' W 014°12'512.0
2017-Sep-12 09:00N 29°13' W 014°08'59311.8
2017-Sep-10 06:38N 35°57' W 005°34'1 8.4
2017-Sep-10 06:30N 35°58' W 005°33'4 8.7
2017-Sep-10 06:00N 35°59' W 005°28'4 8.7
2017-Sep-10 05:30N 36°01' W 005°23'4 8.6
2017-Sep-10 05:00N 36°02' W 005°18'5 9.9
2017-Sep-10 04:30N 36°03' W 005°12'156 8.3
2017-Sep-09 09:44N 36°31' W 002°02'29 9.9
2017-Sep-09 06:50N 36°45' W 001°30'510.9
2017-Sep-09 06:25N 36°47' W 001°25'611.0
2017-Sep-09 05:53N 36°50' W 001°19'411.1
2017-Sep-09 05:30N 36°52' W 001°15'6611.4
2017-Sep-08 23:44N 37°26' W 000°04'611.5
2017-Sep-08 23:14N 37°29' E 000°02'311.7
2017-Sep-08 22:59N 37°31' E 000°05'611.7
2017-Sep-08 22:30N 37°33' E 000°12'611.8
2017-Sep-08 22:00N 37°37' E 000°18'1211.5
2017-Sep-08 20:59N 37°43' E 000°30'911.5
2017-Sep-08 20:11N 37°48' E 000°40'211.5
2017-Sep-08 20:00N 37°49' E 000°42'711.3
2017-Sep-08 19:25N 37°52' E 000°50'611.3
2017-Sep-08 18:54N 37°55' E 000°56'411.1
2017-Sep-08 18:30N 37°57' E 001°01'7911.6
2017-Sep-08 11:44N 38°37' E 002°27'911.4
2017-Sep-08 10:56N 38°42' E 002°37'1611.5
2017-Sep-08 09:35N 38°50' E 002°54'111.4
2017-Sep-08 09:28N 38°50' E 002°56'611.4
2017-Sep-08 08:56N 38°53' E 003°02'511.5
2017-Sep-08 08:30N 38°56' E 003°08'611.8
2017-Sep-08 07:58N 38°59' E 003°15'611.7
2017-Sep-08 07:29N 39°02' E 003°21'36311.0
2017-Sep-06 22:35N 43°14' E 009°07'311.2
2017-Sep-06 22:20N 43°15' E 009°11'411.4
2017-Sep-06 22:00N 43°16' E 009°16'611.6
2017-Sep-06 21:30N 43°17' E 009°24'811.3
2017-Sep-06 20:49N 43°16' E 009°35'1312.0
2017-Sep-06 19:45N 43°18' E 009°52'511.9
2017-Sep-06 19:22N 43°18' E 009°58'411.6
2017-Sep-06 19:01N 43°21' E 010°03'612.4
2017-Sep-06 18:30N 43°26' E 010°07'611.6
2017-Sep-06 18:00N 43°31' E 010°12'5 9.3
2017-Sep-06 17:30N 43°33' E 010°17'2 3.7
2017-Sep-06 16:59N 43°34' E 010°19'0 0.0
2017-Sep-06 16:29N 43°34' E 010°19'0 0.0
2017-Sep-06 15:59N 43°34' E 010°19'0 0.0
2017-Sep-06 15:29N 43°34' E 010°19'0 0.0
2017-Sep-06 14:56N 43°34' E 010°19'0 0.0
2017-Sep-06 14:29N 43°34' E 010°19'0 0.0
2017-Sep-06 13:59N 43°34' E 010°19'0 0.0
2017-Sep-06 13:23N 43°34' E 010°19'0 0.0
2017-Sep-06 12:59N 43°34' E 010°19'0 0.0
2017-Sep-06 12:29N 43°34' E 010°19'0 0.0
2017-Sep-06 11:56N 43°34' E 010°19'0 0.0
2017-Sep-06 11:29N 43°34' E 010°19'0 0.0
2017-Sep-06 10:59N 43°34' E 010°19'0 0.0
2017-Sep-06 10:29N 43°34' E 010°19'0 0.0
2017-Sep-06 09:59N 43°34' E 010°19'0 0.0
2017-Sep-06 09:23N 43°34' E 010°19'0 0.0
2017-Sep-06 08:59N 43°34' E 010°19'0 0.0
2017-Sep-06 08:29N 43°34' E 010°19'0 0.0
2017-Sep-06 07:59N 43°34' E 010°19'0 0.0
2017-Sep-06 07:26N 43°34' E 010°19'0 0.0
2017-Sep-06 06:59N 43°34' E 010°19'0 0.0
2017-Sep-06 06:29N 43°34' E 010°19'0 0.0
2017-Sep-06 05:59N 43°34' E 010°19'0 0.0
2017-Sep-06 05:23N 43°34' E 010°19'0 0.0
2017-Sep-06 04:59N 43°34' E 010°19'0 0.0
2017-Sep-06 04:26N 43°34' E 010°19'0 0.0
2017-Sep-06 03:59N 43°34' E 010°19'0 0.0
2017-Sep-06 03:26N 43°34' E 010°19'0 0.0
2017-Sep-06 02:56N 43°34' E 010°19'0 0.0
2017-Sep-06 02:26N 43°34' E 010°19'0 0.0
2017-Sep-06 01:59N 43°34' E 010°19'0 0.0
2017-Sep-06 01:29N 43°34' E 010°19'0 0.0
2017-Sep-06 00:56N 43°34' E 010°19'0 0.0
2017-Sep-06 00:29N 43°34' E 010°19'0 0.0
2017-Sep-05 23:59N 43°34' E 010°19'0 0.0
2017-Sep-05 23:29N 43°34' E 010°19'0 0.0
2017-Sep-05 22:50N 43°34' E 010°19'0 0.0
2017-Sep-05 22:17N 43°34' E 010°19'0 0.0
2017-Sep-05 21:59N 43°34' E 010°19'0 0.0
2017-Sep-05 21:23N 43°34' E 010°19'0 0.0
2017-Sep-05 20:56N 43°34' E 010°19'0 0.0
2017-Sep-05 20:29N 43°34' E 010°19'0 0.0
2017-Sep-05 19:59N 43°34' E 010°19'0 0.0
2017-Sep-05 19:29N 43°34' E 010°19'0 0.0
2017-Sep-05 18:59N 43°34' E 010°19'0 0.0
2017-Sep-05 18:29N 43°34' E 010°19'0 0.0
2017-Sep-05 17:59N 43°34' E 010°19'0 0.0
2017-Sep-05 17:29N 43°34' E 010°19'0 0.0
2017-Sep-05 16:59N 43°34' E 010°19'0 0.0
2017-Sep-05 16:29N 43°34' E 010°19'0 0.0
2017-Sep-05 15:56N 43°34' E 010°19'0 0.0
2017-Sep-05 15:29N 43°34' E 010°19'0 0.0
2017-Sep-05 14:59N 43°34' E 010°19'0 0.0
2017-Sep-05 14:26N 43°34' E 010°19'0 0.0
2017-Sep-05 13:59N 43°34' E 010°19'0 0.0
2017-Sep-05 13:26N 43°34' E 010°19'0 0.0
2017-Sep-05 12:53N 43°34' E 010°19'0 0.0
2017-Sep-05 12:26N 43°34' E 010°19'0 0.0
2017-Sep-05 11:59N 43°34' E 010°19'0 0.0
2017-Sep-05 11:29N 43°34' E 010°19'0 0.0
2017-Sep-05 10:59N 43°34' E 010°19'0 0.0
2017-Sep-05 10:26N 43°34' E 010°19'0 0.0
2017-Sep-05 09:59N 43°34' E 010°19'0 0.0
2017-Sep-05 09:29N 43°34' E 010°19'0 0.0
2017-Sep-05 08:59N 43°34' E 010°19'0 0.0
2017-Sep-05 08:26N 43°34' E 010°19'0 0.0
2017-Sep-05 07:53N 43°34' E 010°19'0 0.0
2017-Sep-05 07:26N 43°34' E 010°19'0 0.0
2017-Sep-05 06:56N 43°34' E 010°19'0 0.0
2017-Sep-05 06:29N 43°34' E 010°19'0 0.0
2017-Sep-05 05:56N 43°34' E 010°19'0 0.0
2017-Sep-05 05:26N 43°34' E 010°19'0 0.0
2017-Sep-05 04:56N 43°34' E 010°19'0 0.0
2017-Sep-05 04:29N 43°34' E 010°19'0 0.0
2017-Sep-05 03:59N 43°34' E 010°19'0 0.0
2017-Sep-05 03:20N 43°34' E 010°19'0 0.0
2017-Sep-05 02:53N 43°34' E 010°19'0 0.0
2017-Sep-05 02:29N 43°34' E 010°19'0 0.0
2017-Sep-05 01:59N 43°34' E 010°19'0 0.0
2017-Sep-05 01:23N 43°34' E 010°19'0 0.0
2017-Sep-05 00:59N 43°34' E 010°19'0 0.0
2017-Sep-05 00:29N 43°34' E 010°19'0 0.0
2017-Sep-04 23:56N 43°34' E 010°19'0 0.0
2017-Sep-04 23:23N 43°34' E 010°19'0 0.0
2017-Sep-04 22:56N 43°34' E 010°19'0 0.0
2017-Sep-04 22:29N 43°34' E 010°19'0 0.0
2017-Sep-04 21:56N 43°34' E 010°19'0 1.0
2017-Sep-04 21:30N 43°34' E 010°19'3 6.4
2017-Sep-04 21:00N 43°32' E 010°16'2 4.4
2017-Sep-04 20:30N 43°30' E 010°14'1 2.4
2017-Sep-04 19:58N 43°29' E 010°16'0 0.0
2017-Sep-04 19:28N 43°29' E 010°16'0 0.0
2017-Sep-04 18:58N 43°29' E 010°16'0 0.0
2017-Sep-04 18:28N 43°29' E 010°16'0 0.0
2017-Sep-04 17:49N 43°29' E 010°16'0 0.0
2017-Sep-04 17:28N 43°29' E 010°16'0 0.0
2017-Sep-04 16:55N 43°29' E 010°16'0 0.0
2017-Sep-04 16:28N 43°29' E 010°16'0 0.0
2017-Sep-04 15:58N 43°29' E 010°16'0 0.0
2017-Sep-04 15:28N 43°29' E 010°16'0 0.0
2017-Sep-04 14:52N 43°29' E 010°16'0 0.0
2017-Sep-04 14:25N 43°29' E 010°16'0 0.0
2017-Sep-04 13:37N 43°29' E 010°16'0 0.0
2017-Sep-04 13:28N 43°29' E 010°16'0 0.0
2017-Sep-04 12:52N 43°29' E 010°16'0 0.0
2017-Sep-04 12:25N 43°29' E 010°16'0 0.0
2017-Sep-04 11:52N 43°29' E 010°16'0 0.0
2017-Sep-04 11:22N 43°29' E 010°16'0 0.0
2017-Sep-04 10:58N 43°29' E 010°16'0 0.0
2017-Sep-04 10:25N 43°29' E 010°16'0 0.0
2017-Sep-04 09:55N 43°29' E 010°16'0 0.0
2017-Sep-04 09:10N 43°29' E 010°16'0 0.0
2017-Sep-04 08:55N 43°29' E 010°16'0 0.0
2017-Sep-04 08:25N 43°29' E 010°16'0 0.0
2017-Sep-04 07:58N 43°29' E 010°16'0 0.1
2017-Sep-04 07:25N 43°29' E 010°16'0 0.0
2017-Sep-04 06:58N 43°29' E 010°16'0 0.0
2017-Sep-04 06:25N 43°29' E 010°16'0 0.0
2017-Sep-04 05:58N 43°29' E 010°16'0 0.0
2017-Sep-04 05:28N 43°29' E 010°16'0 0.0
2017-Sep-04 04:58N 43°29' E 010°16'0 0.0
2017-Sep-04 04:28N 43°29' E 010°16'0 0.0
2017-Sep-04 03:58N 43°29' E 010°16'0 0.2
2017-Sep-04 03:30N 43°29' E 010°16'4 7.7
2017-Sep-04 03:00N 43°27' E 010°11'612.2
2017-Sep-04 02:30N 43°23' E 010°05'611.9
2017-Sep-04 02:00N 43°19' E 009°60'611.6
2017-Sep-04 01:30N 43°17' E 009°52'612.1
2017-Sep-04 01:00N 43°17' E 009°44'612.0
2017-Sep-04 00:30N 43°16' E 009°36'611.8
2017-Sep-04 00:00N 43°16' E 009°28'612.2
2017-Sep-03 23:30N 43°16' E 009°19'  

Dump ship's entire track history